Time;durP1;ratioP1;P1;durP2;ratioP2;P2;SDS_P1;SDS_P2;PMS_P1;PMS_P2;Temp;Humidity;BMP_temperature;BMP_pressure;BME280_temperature;BME280_humidity;BME280_pressure;Samples;Min_cycle;Max_cycle;Signal;HPM_P1;HPM_P2
2023/12/17 00:02:15;;;;;;;14.80;11.83;;;0.10;41.40;;;;;;5015306;28;20180;-71
2023/12/17 00:04:41;;;;;;;15.40;11.50;;;0.00;41.10;;;;;;5032906;28;20666;-71
2023/12/17 00:07:06;;;;;;;17.80;12.03;;;0.00;40.60;;;;;;5033189;28;20179;-72
2023/12/17 00:09:32;;;;;;;22.30;11.73;;;-0.10;40.10;;;;;;5032945;28;20339;-72
2023/12/17 00:11:57;;;;;;;14.83;11.70;;;0.00;41.60;;;;;;5033298;28;20175;-72
2023/12/17 00:14:23;;;;;;;17.20;11.73;;;0.00;40.80;;;;;;5033216;28;20187;-72
2023/12/17 00:16:49;;;;;;;16.67;12.17;;;0.00;40.70;;;;;;5033464;28;20174;-72
2023/12/17 00:19:14;;;;;;;18.93;11.77;;;-0.10;40.30;;;;;;5033020;28;20721;-72
2023/12/17 00:21:40;;;;;;;16.70;11.87;;;-0.10;40.50;;;;;;5032928;28;20689;-69
2023/12/17 00:24:05;;;;;;;17.73;12.60;;;-0.10;41.60;;;;;;5032499;28;20283;-72
2023/12/17 00:26:31;;;;;;;15.53;11.80;;;-0.10;40.10;;;;;;5032578;28;20524;-70
2023/12/17 00:28:57;;;;;;;14.85;11.63;;;-0.10;40.80;;;;;;5031999;28;20199;-71
2023/12/17 00:31:22;;;;;;;18.10;13.70;;;-0.10;40.30;;;;;;5032460;28;20176;-70
2023/12/17 00:33:48;;;;;;;16.40;11.23;;;-0.10;39.60;;;;;;5032344;28;20172;-70
2023/12/17 00:36:14;;;;;;;12.57;9.87;;;-0.10;41.00;;;;;;5032335;28;20223;-70
2023/12/17 00:38:39;;;;;;;18.17;13.10;;;-0.10;41.00;;;;;;5032040;28;20652;-70
2023/12/17 00:41:05;;;;;;;17.73;11.43;;;-0.10;39.50;;;;;;5032499;28;20600;-69
2023/12/17 00:43:30;;;;;;;15.67;11.50;;;-0.10;39.90;;;;;;5032443;28;20183;-69
2023/12/17 00:45:56;;;;;;;12.93;10.13;;;-0.20;39.40;;;;;;5032562;28;20230;-70
2023/12/17 00:48:21;;;;;;;13.20;9.63;;;-0.20;38.90;;;;;;5031883;28;20179;-70
2023/12/17 00:50:47;;;;;;;14.07;9.87;;;-0.20;39.60;;;;;;5031941;28;20223;-69
2023/12/17 00:53:12;;;;;;;10.03;8.83;;;-0.30;39.40;;;;;;5032014;28;20175;-69
2023/12/17 00:55:38;;;;;;;14.23;10.37;;;-0.20;39.80;;;;;;5031968;28;20171;-70
2023/12/17 00:58:03;;;;;;;15.07;9.33;;;-0.30;39.20;;;;;;5031714;28;20194;-70
2023/12/17 01:00:29;;;;;;;13.60;9.60;;;-0.30;39.50;;;;;;5031794;28;20250;-69
2023/12/17 01:02:54;;;;;;;13.97;10.90;;;-0.30;39.00;;;;;;5031874;28;20594;-70
2023/12/17 01:05:20;;;;;;;10.77;8.70;;;-0.40;38.70;;;;;;5031862;28;20654;-70
2023/12/17 01:07:45;;;;;;;12.37;9.37;;;-0.30;39.10;;;;;;5031681;28;20194;-70
2023/12/17 01:10:11;;;;;;;12.27;9.43;;;0.10;40.60;;;;;;5031663;28;20269;-70
2023/12/17 01:12:36;;;;;;;12.73;10.13;;;-0.40;42.30;;;;;;5031715;28;20733;-71
2023/12/17 01:15:02;;;;;;;15.67;10.90;;;-0.40;42.00;;;;;;5031725;28;20539;-72
2023/12/17 01:17:27;;;;;;;13.73;10.27;;;-0.60;40.70;;;;;;5031701;28;20176;-70
2023/12/17 01:19:53;;;;;;;17.40;11.00;;;-0.60;42.10;;;;;;5031637;28;20206;-71
2023/12/17 01:22:18;;;;;;;13.60;9.73;;;-0.50;44.70;;;;;;5031690;28;20183;-70
2023/12/17 01:24:44;;;;;;;12.93;11.30;;;-0.50;43.60;;;;;;5031722;28;20179;-71
2023/12/17 01:27:09;;;;;;;15.20;10.50;;;-0.40;45.00;;;;;;5031584;28;20187;-69
2023/12/17 01:29:35;;;;;;;13.50;9.87;;;-0.30;43.80;;;;;;5031276;28;20229;-70
2023/12/17 01:32:00;;;;;;;13.87;10.87;;;-0.40;43.30;;;;;;5031564;28;20187;-70
2023/12/17 01:34:26;;;;;;;14.57;10.27;;;-0.30;43.70;;;;;;5031477;28;20237;-71
2023/12/17 01:36:52;;;;;;;10.93;8.53;;;-0.30;44.10;;;;;;5031586;28;20596;-70
2023/12/17 01:39:17;;;;;;;12.10;10.53;;;-0.30;57.90;;;;;;5031249;28;20569;-70
2023/12/17 01:41:44;;;;;;;17.50;9.30;;;-0.30;45.70;;;;;;5031367;28;20573;-70
2023/12/17 01:44:11;;;;;;;13.35;10.90;;;-0.40;45.80;;;;;;5031516;28;20183;-70
2023/12/17 01:46:37;;;;;;;13.65;10.52;;;-0.40;44.70;;;;;;5013868;28;20187;-69
2023/12/17 01:49:03;;;;;;;18.13;11.23;;;-0.40;44.50;;;;;;5031331;28;20199;-69
2023/12/17 01:51:31;;;;;;;14.00;9.70;;;-0.40;44.40;;;;;;5031603;28;20172;-70
2023/12/17 01:53:57;;;;;;;14.27;9.68;;;-0.40;43.70;;;;;;5031604;28;20824;-69
2023/12/17 01:56:23;;;;;;;14.30;11.32;;;-0.40;44.80;;;;;;5031398;28;20175;-69
2023/12/17 01:58:48;;;;;;;12.15;10.02;;;-0.50;47.80;;;;;;5031788;28;20563;-69
2023/12/17 02:01:14;;;;;;;16.10;11.10;;;-0.40;47.10;;;;;;5035347;28;20175;-69
2023/12/17 02:03:40;;;;;;;14.07;11.33;;;-0.50;51.70;;;;;;5035377;28;20207;-70
2023/12/17 02:06:08;;;;;;;15.23;10.90;;;-0.40;45.20;;;;;;5035091;28;20413;-69
2023/12/17 02:08:35;;;;;;;14.77;10.02;;;-0.40;46.30;;;;;;5034689;28;20179;-70
2023/12/17 02:11:01;;;;;;;14.05;10.68;;;-0.40;46.80;;;;;;5035112;28;20175;-69
2023/12/17 02:13:26;;;;;;;13.40;9.10;;;-0.40;46.20;;;;;;5035200;28;20172;-69
2023/12/17 02:15:52;;;;;;;11.73;9.70;;;-0.50;47.70;;;;;;5034958;28;20190;-70
2023/12/17 02:18:17;;;;;;;15.50;11.67;;;-0.50;56.60;;;;;;5034860;28;20176;-70
2023/12/17 02:20:46;;;;;;;11.37;9.43;;;-0.50;50.70;;;;;;5034776;28;20221;-70
2023/12/17 02:23:12;;;;;;;13.98;9.63;;;-0.50;50.00;;;;;;5034921;28;20187;-70
2023/12/17 02:25:37;;;;;;;15.07;8.90;;;-0.50;50.60;;;;;;5034733;28;20305;-71
2023/12/17 02:28:03;;;;;;;10.57;9.13;;;-0.50;49.10;;;;;;5034553;28;20410;-70
2023/12/17 02:30:28;;;;;;;13.13;10.10;;;-0.50;48.70;;;;;;5034576;28;20211;-70
2023/12/17 02:32:54;;;;;;;13.60;9.87;;;-0.50;48.30;;;;;;5034742;28;20587;-70
2023/12/17 02:35:21;;;;;;;11.73;10.17;;;-0.60;45.80;;;;;;5034658;28;20175;-70
2023/12/17 02:37:48;;;;;;;12.75;10.18;;;-0.70;46.60;;;;;;5034417;28;20195;-72
2023/12/17 02:40:14;;;;;;;12.55;8.73;;;-0.60;48.30;;;;;;5034285;28;20686;-70
2023/12/17 02:42:39;;;;;;;16.43;10.47;;;-0.60;47.70;;;;;;5034430;28;20177;-71
2023/12/17 02:45:05;;;;;;;13.63;10.77;;;-0.60;48.00;;;;;;5034380;28;20748;-70
2023/12/17 02:47:31;;;;;;;18.40;12.13;;;-0.60;47.50;;;;;;5016310;28;20179;-69
2023/12/17 02:49:56;;;;;;;13.83;9.10;;;-0.60;47.30;;;;;;5034201;28;20218;-70
2023/12/17 02:52:22;;;;;;;16.57;9.30;;;-0.60;47.90;;;;;;5034300;28;20176;-70
2023/12/17 02:54:48;;;;;;;12.57;8.37;;;-0.60;48.00;;;;;;5034086;28;20241;-72
2023/12/17 02:57:14;;;;;;;11.90;9.40;;;-0.60;48.00;;;;;;5034130;28;20258;-70
2023/12/17 02:59:40;;;;;;;12.47;9.40;;;-0.70;48.00;;;;;;5033701;28;20290;-70
2023/12/17 03:02:05;;;;;;;14.00;10.55;;;-0.70;49.30;;;;;;5034096;28;20418;-70
2023/12/17 03:04:31;;;;;;;10.83;9.77;;;-0.70;51.40;;;;;;5034038;28;20384;-70
2023/12/17 03:06:56;;;;;;;11.10;9.20;;;-0.80;52.90;;;;;;5034087;28;20177;-71
2023/12/17 03:09:22;;;;;;;11.40;9.20;;;;;;;;;;5033457;28;20210;-71
2023/12/17 03:11:48;;;;;;;15.45;10.13;;;-0.70;44.30;;;;;;5032873;28;20190;-70
2023/12/17 03:14:13;;;;;;;11.23;8.67;;;-0.80;43.30;;;;;;5033853;28;20172;-71
2023/12/17 03:16:41;;;;;;;12.67;9.80;;;-0.70;45.00;;;;;;5033822;28;20589;-71
2023/12/17 03:19:06;;;;;;;13.60;11.43;;;-0.80;43.30;;;;;;5033426;28;20334;-70
2023/12/17 03:21:32;;;;;;;13.00;9.73;;;-0.80;43.40;;;;;;5033768;28;20266;-71
2023/12/17 03:23:58;;;;;;;11.90;9.60;;;-0.80;43.40;;;;;;5033777;28;20188;-69
2023/12/17 03:26:23;;;;;;;11.60;7.87;;;-0.80;44.90;;;;;;5033686;28;20184;-70
2023/12/17 03:28:49;;;;;;;17.47;12.03;;;-0.90;45.70;;;;;;5033336;28;20345;-69
2023/12/17 03:31:15;;;;;;;12.67;9.53;;;-0.90;44.90;;;;;;5033666;28;20214;-70
2023/12/17 03:33:45;;;;;;;12.85;10.32;;;-0.80;45.20;;;;;;5033557;28;20812;-69
2023/12/17 03:36:15;;;;;;;14.32;9.02;;;-0.80;45.90;;;;;;5033453;28;20171;-70
2023/12/17 03:38:43;;;;;;;12.07;8.93;;;-0.90;47.10;;;;;;5033050;28;20190;-70
2023/12/17 03:41:25;;;;;;;12.75;9.48;;;-0.90;48.30;;;;;;5032965;28;20168;-70
2023/12/17 03:43:53;;;;;;;14.27;9.85;;;-0.70;49.40;;;;;;5033411;28;20693;-69
2023/12/17 03:46:19;;;;;;;12.77;9.32;;;-0.60;49.90;;;;;;5032726;28;20662;-70
2023/12/17 03:48:44;;;;;;;13.90;10.05;;;-0.70;48.90;;;;;;5032546;28;20196;-71
2023/12/17 03:51:10;;;;;;;13.70;10.00;;;-0.80;48.10;;;;;;5033076;28;20222;-70
2023/12/17 03:53:36;;;;;;;14.27;9.90;;;-0.90;47.50;;;;;;5032750;28;20182;-70
2023/12/17 03:56:01;;;;;;;13.10;9.57;;;-0.90;49.20;;;;;;5032537;28;20647;-71
2023/12/17 03:58:30;;;;;;;12.43;10.00;;;-0.90;49.50;;;;;;5032729;28;20602;-70
2023/12/17 04:00:56;;;;;;;12.45;9.48;;;-0.90;49.80;;;;;;5056563;22;20288;-71
2023/12/17 04:03:21;;;;;;;13.43;8.23;;;-0.90;50.20;;;;;;5032874;28;20582;-71
2023/12/17 04:05:47;;;;;;;12.03;9.33;;;-1.00;50.40;;;;;;5032804;28;20459;-71
2023/12/17 04:08:12;;;;;;;14.60;9.87;;;-0.90;51.00;;;;;;5032594;28;20551;-71
2023/12/17 04:10:38;;;;;;;12.10;9.83;;;-0.90;51.80;;;;;;5032772;28;20215;-71
2023/12/17 04:13:04;;;;;;;11.77;9.37;;;-0.90;53.00;;;;;;5032716;28;20310;-72
2023/12/17 04:15:29;;;;;;;11.83;8.70;;;-0.90;53.50;;;;;;5032761;28;20178;-71
2023/12/17 04:17:55;;;;;;;18.47;10.47;;;-0.80;53.30;;;;;;5014778;28;20199;-72
2023/12/17 04:20:20;;;;;;;11.60;10.40;;;-0.80;53.20;;;;;;5032488;28;20560;-71
2023/12/17 04:22:46;;;;;;;12.10;10.33;;;-0.80;53.60;;;;;;5032455;28;20257;-72
2023/12/17 04:25:12;;;;;;;9.65;8.07;;;-0.90;54.60;;;;;;5032611;28;20290;-71
2023/12/17 04:27:39;;;;;;;13.03;8.70;;;-0.90;55.20;;;;;;5032512;28;20642;-72
2023/12/17 04:30:06;;;;;;;13.65;9.23;;;-0.80;56.10;;;;;;5014767;28;20563;-70
2023/12/17 04:32:31;;;;;;;11.90;8.07;;;-0.80;55.40;;;;;;5032585;28;20245;-70
2023/12/17 04:34:57;;;;;;;15.20;10.13;;;;;;;;;;5032897;28;20171;-71
2023/12/17 04:37:23;;;;;;;13.23;9.43;;;-0.80;61.50;;;;;;5032574;28;20210;-71
2023/12/17 04:39:49;;;;;;;12.63;9.90;;;-0.90;61.30;;;;;;5014185;28;20705;-71
2023/12/17 04:42:16;;;;;;;10.40;8.48;;;-0.90;63.90;;;;;;5014484;28;20179;-71
2023/12/17 04:44:42;;;;;;;10.88;9.48;;;-0.90;68.60;;;;;;5014471;28;20186;-71
2023/12/17 04:47:07;;;;;;;11.83;8.43;;;-0.90;68.60;;;;;;5032083;28;20179;-71
2023/12/17 04:49:33;;;;;;;14.53;10.60;;;-0.90;69.90;;;;;;5031714;28;20241;-71
2023/12/17 04:51:59;;;;;;;11.00;8.60;;;-0.90;70.70;;;;;;5032096;28;20425;-71
2023/12/17 04:54:25;;;;;;;16.23;9.73;;;-0.90;68.90;;;;;;5031976;28;20175;-72
2023/12/17 04:56:50;;;;;;;13.80;9.10;;;-0.90;70.00;;;;;;5031993;28;20179;-72
2023/12/17 04:59:16;;;;;;;12.30;9.50;;;-0.90;68.70;;;;;;5031580;28;20218;-71
2023/12/17 05:01:42;;;;;;;14.90;10.10;;;;;;;;;;5031975;28;20186;-72
2023/12/17 05:04:08;;;;;;;13.83;10.47;;;;;;;;;;5031963;28;20187;-72
2023/12/17 05:06:34;;;;;;;10.97;9.57;;;;;;;;;;5031919;28;20413;-72
2023/12/17 05:08:59;;;;;;;12.03;9.87;;;-1.00;64.80;;;;;;5031456;28;20511;-72
2023/12/17 05:11:25;;;;;;;14.93;10.63;;;-1.00;51.20;;;;;;5031915;28;20422;-72
2023/12/17 05:13:50;;;;;;;15.63;9.40;;;-1.00;52.90;;;;;;5031806;28;20638;-72
2023/12/17 05:16:16;;;;;;;12.53;10.03;;;-0.90;65.50;;;;;;5031695;28;20171;-72
2023/12/17 05:18:41;;;;;;;11.90;9.87;;;-1.00;56.30;;;;;;5031510;28;20182;-71
2023/12/17 05:21:07;;;;;;;11.67;9.27;;;-0.90;50.50;;;;;;5031653;28;20751;-71
2023/12/17 05:23:33;;;;;;;13.93;9.65;;;-1.00;49.40;;;;;;5031700;28;20693;-71
2023/12/17 05:25:59;;;;;;;16.70;9.47;;;-1.00;49.90;;;;;;5031652;28;20183;-72
2023/12/17 05:28:25;;;;;;;13.63;9.30;;;-1.00;50.00;;;;;;5013677;28;20224;-71
2023/12/17 05:30:50;;;;;;;12.07;9.37;;;-1.00;49.00;;;;;;5013700;28;21004;-71
2023/12/17 05:33:16;;;;;;;13.37;9.70;;;-1.00;49.20;;;;;;5031590;28;20251;-72
2023/12/17 05:35:42;;;;;;;20.33;11.40;;;-1.00;49.80;;;;;;5035680;28;20191;-71
2023/12/17 05:38:08;;;;;;;10.75;8.75;;;-1.00;49.80;;;;;;5035506;28;20543;-72
2023/12/17 05:40:33;;;;;;;13.40;9.47;;;-1.00;49.70;;;;;;5035545;28;20191;-72
2023/12/17 05:42:59;;;;;;;14.10;8.80;;;-1.00;49.70;;;;;;5017734;28;20262;-72
2023/12/17 05:45:24;;;;;;;11.43;7.77;;;-1.00;48.20;;;;;;5035540;28;20175;-71
2023/12/17 05:47:50;;;;;;;12.10;9.43;;;-1.00;47.40;;;;;;5017635;28;20421;-72
2023/12/17 05:50:15;;;;;;;11.33;9.13;;;-1.00;48.20;;;;;;5035172;28;20260;-72
2023/12/17 05:52:41;;;;;;;13.77;9.17;;;-1.00;46.60;;;;;;5035392;28;20195;-72
2023/12/17 05:55:07;;;;;;;9.53;8.03;;;-1.10;47.50;;;;;;5035278;28;20611;-73
2023/12/17 05:57:33;;;;;;;11.60;8.80;;;-1.00;49.40;;;;;;5035146;28;20646;-73
2023/12/17 05:59:59;;;;;;;10.97;8.00;;;-1.00;54.60;;;;;;5034944;28;20210;-72
2023/12/17 06:02:25;;;;;;;11.88;8.02;;;-1.00;50.20;;;;;;5035073;28;20716;-74
2023/12/17 06:04:51;;;;;;;15.83;11.43;;;-1.00;47.60;;;;;;5017393;28;20210;-73
2023/12/17 06:07:17;;;;;;;11.00;9.30;;;-1.00;46.40;;;;;;5035063;28;20271;-73
2023/12/17 06:09:42;;;;;;;14.37;9.53;;;-1.00;45.20;;;;;;5034707;28;20207;-73
2023/12/17 06:12:08;;;;;;;11.60;10.07;;;-1.10;43.90;;;;;;5035129;28;20677;-73
2023/12/17 06:14:34;;;;;;;12.43;8.33;;;-1.20;44.30;;;;;;5035057;28;20255;-73
2023/12/17 06:17:00;;;;;;;14.15;10.52;;;-1.10;45.50;;;;;;5035036;28;20182;-73
2023/12/17 06:19:25;;;;;;;15.23;11.03;;;-1.10;45.00;;;;;;5034778;28;20205;-73
2023/12/17 06:21:51;;;;;;;13.70;11.30;;;-1.10;46.20;;;;;;5017023;28;20186;-72
2023/12/17 06:24:16;;;;;;;14.20;10.40;;;-1.10;46.60;;;;;;5034745;28;20183;-73
2023/12/17 06:26:42;;;;;;;11.33;9.07;;;-1.00;45.80;;;;;;5034798;28;20203;-72
2023/12/17 06:29:13;;;;;;;13.90;10.33;;;-1.10;45.70;;;;;;5034349;28;20221;-72
2023/12/17 06:31:40;;;;;;;15.55;11.50;;;-1.20;48.60;;;;;;5016944;28;20172;-73
2023/12/17 06:34:05;;;;;;;12.40;9.60;;;-1.10;48.90;;;;;;5034560;28;20175;-72
2023/12/17 06:36:31;;;;;;;14.63;10.60;;;-1.10;47.10;;;;;;5034730;28;20235;-73
2023/12/17 06:38:56;;;;;;;16.30;10.57;;;-1.10;51.00;;;;;;5016520;28;20186;-71
2023/12/17 06:41:22;;;;;;;16.33;10.73;;;-1.10;49.70;;;;;;5034593;28;20189;-72
2023/12/17 06:43:47;;;;;;;15.70;10.77;;;-1.10;49.00;;;;;;5016750;28;20186;-70
2023/12/17 06:46:16;;;;;;;15.50;10.53;;;-1.10;48.90;;;;;;5034194;28;20697;-71
2023/12/17 06:48:42;;;;;;;11.77;10.32;;;-1.10;50.10;;;;;;5034067;28;20172;-70
2023/12/17 06:51:08;;;;;;;14.60;9.93;;;-1.20;50.90;;;;;;5034240;28;20217;-71
2023/12/17 06:53:33;;;;;;;14.70;10.73;;;-1.20;55.60;;;;;;5034313;28;20428;-71
2023/12/17 06:55:59;;;;;;;15.43;10.37;;;-1.10;57.00;;;;;;5034208;28;20254;-72
2023/12/17 06:58:24;;;;;;;16.03;10.87;;;-1.10;60.30;;;;;;5016165;28;20222;-72
2023/12/17 07:00:50;;;;;;;12.63;9.90;;;-1.10;50.20;;;;;;5034410;28;20697;-70
2023/12/17 07:03:19;;;;;;;13.27;10.93;;;-1.10;52.00;;;;;;5034369;28;20599;-73
2023/12/17 07:05:45;;;;;;;11.18;8.65;;;;;;;;;;5034600;28;20270;-73
2023/12/17 07:08:11;;;;;;;13.43;9.23;;;-1.00;42.10;;;;;;5035030;28;20179;-73
2023/12/17 07:10:37;;;;;;;10.57;8.10;;;-1.00;42.00;;;;;;5034965;28;20216;-73
2023/12/17 07:13:03;;;;;;;14.00;9.43;;;-1.00;41.50;;;;;;5035815;28;20230;-74
2023/12/17 07:15:29;;;;;;;13.25;9.40;;;-1.00;41.30;;;;;;5038364;28;20266;-73
2023/12/17 07:17:55;;;;;;;18.30;10.70;;;-1.00;41.20;;;;;;5031096;28;20366;-73
2023/12/17 07:20:20;;;;;;;13.73;9.60;;;-1.00;40.70;;;;;;5034112;28;20430;-72
2023/12/17 07:22:47;;;;;;;12.10;8.40;;;-1.00;41.20;;;;;;5016881;28;20179;-72
2023/12/17 07:25:13;;;;;;;14.40;9.18;;;-0.90;41.50;;;;;;5034492;28;20262;-73
2023/12/17 07:27:39;;;;;;;11.30;9.20;;;-0.90;41.20;;;;;;5016218;28;20215;-73
2023/12/17 07:30:05;;;;;;;10.47;8.57;;;-0.80;41.50;;;;;;5015883;28;20234;-73
2023/12/17 07:32:31;;;;;;;12.95;9.35;;;-0.80;41.20;;;;;;5034243;28;20180;-73
2023/12/17 07:34:56;;;;;;;13.10;9.90;;;-0.80;40.60;;;;;;5033874;28;20183;-73
2023/12/17 07:37:22;;;;;;;11.20;8.30;;;-0.80;40.80;;;;;;5033783;28;20657;-71
2023/12/17 07:39:48;;;;;;;9.03;8.10;;;-0.80;40.50;;;;;;5033565;28;20191;-73
2023/12/17 07:42:14;;;;;;;11.10;9.13;;;-0.70;40.80;;;;;;5034279;28;20704;-73
2023/12/17 07:44:39;;;;;;;14.47;10.13;;;-0.70;40.00;;;;;;5034033;28;20267;-73
2023/12/17 07:47:05;;;;;;;11.40;9.70;;;-0.60;40.40;;;;;;5034166;28;20716;-73
2023/12/17 07:49:31;;;;;;;11.10;9.63;;;-0.70;39.70;;;;;;5015983;28;20210;-74
2023/12/17 07:51:57;;;;;;;13.00;9.27;;;-0.60;39.70;;;;;;5033697;28;20676;-73
2023/12/17 07:54:22;;;;;;;10.57;9.10;;;-0.60;38.80;;;;;;5035313;28;20187;-73
2023/12/17 07:56:48;;;;;;;12.37;9.00;;;-0.60;39.90;;;;;;5033171;28;20175;-72
2023/12/17 07:59:13;;;;;;;10.77;9.13;;;-0.60;39.30;;;;;;5032980;28;20210;-71
2023/12/17 08:01:39;;;;;;;15.10;9.50;;;-0.60;39.10;;;;;;5015288;28;20273;-71
2023/12/17 08:04:04;;;;;;;13.33;10.40;;;-0.60;38.60;;;;;;5033118;28;20317;-72
2023/12/17 08:06:30;;;;;;;14.30;11.27;;;-0.60;39.50;;;;;;5033578;28;20229;-72
2023/12/17 08:08:56;;;;;;;10.07;8.93;;;-0.50;39.70;;;;;;5032905;28;20185;-73
2023/12/17 08:11:22;;;;;;;11.00;8.77;;;-0.40;39.40;;;;;;5033062;28;20171;-71
2023/12/17 08:13:48;;;;;;;13.37;11.10;;;-0.40;40.10;;;;;;5033411;28;20172;-69
2023/12/17 08:16:14;;;;;;;18.65;11.57;;;-0.40;39.20;;;;;;5032608;28;20179;-75
2023/12/17 08:18:40;;;;;;;11.67;10.00;;;-0.30;40.90;;;;;;5032166;28;20179;-71
2023/12/17 08:21:06;;;;;;;15.67;11.37;;;-0.20;40.30;;;;;;5032445;28;20438;-68
2023/12/17 08:23:31;;;;;;;17.60;13.90;;;-0.20;39.70;;;;;;5032467;28;20179;-71
2023/12/17 08:25:57;;;;;;;16.27;12.53;;;-0.20;40.40;;;;;;5032790;28;20428;-69
2023/12/17 08:28:23;;;;;;;15.20;12.23;;;-0.10;41.30;;;;;;5029471;28;20477;-69
2023/12/17 08:30:49;;;;;;;19.75;13.38;;;0.00;40.70;;;;;;5022933;28;20268;-68
2023/12/17 08:33:16;;;;;;;24.13;17.02;;;0.10;40.40;;;;;;5027742;28;20171;-70
2023/12/17 08:35:43;;;;;;;17.33;14.45;;;0.10;39.80;;;;;;5009411;28;20179;-70
2023/12/17 08:38:09;;;;;;;22.30;13.63;;;0.20;39.50;;;;;;5007130;28;20195;-70
2023/12/17 08:40:39;;;;;;;18.67;13.57;;;0.20;39.20;;;;;;5027707;28;20207;-70
2023/12/17 08:43:09;;;;;;;20.60;14.63;;;0.30;39.30;;;;;;5009391;28;20191;-70
2023/12/17 08:45:35;;;;;;;14.02;12.63;;;0.30;39.70;;;;;;5009904;28;20685;-71
2023/12/17 08:48:02;;;;;;;13.90;10.77;;;0.40;40.20;;;;;;5010239;28;20192;-71
2023/12/17 08:50:28;;;;;;;16.20;14.38;;;0.40;40.10;;;;;;5010337;28;20211;-69
2023/12/17 08:52:54;;;;;;;20.63;14.77;;;0.60;40.20;;;;;;5009604;28;20187;-71
2023/12/17 08:55:19;;;;;;;18.00;14.80;;;0.60;40.30;;;;;;5027918;28;20277;-69
2023/12/17 08:57:48;;;;;;;16.20;12.57;;;0.60;40.40;;;;;;5027770;28;20420;-71
2023/12/17 09:00:16;;;;;;;16.02;13.02;;;0.60;40.80;;;;;;5027169;28;20225;-69
2023/12/17 09:02:42;;;;;;;14.52;12.82;;;0.80;42.00;;;;;;5027616;28;20274;-71
2023/12/17 09:05:08;;;;;;;16.83;13.70;;;0.90;40.70;;;;;;5010693;28;20197;-70
2023/12/17 09:07:34;;;;;;;15.60;13.65;;;0.90;40.20;;;;;;5027485;28;20819;-71
2023/12/17 09:10:00;;;;;;;17.37;13.83;;;1.00;38.90;;;;;;5026815;28;20226;-69
2023/12/17 09:12:26;;;;;;;16.20;11.98;;;1.10;37.90;;;;;;5010838;28;20431;-69
2023/12/17 09:14:51;;;;;;;14.20;9.90;;;1.10;36.70;;;;;;5009737;28;20183;-70
2023/12/17 09:17:17;;;;;;;10.60;9.50;;;1.10;38.80;;;;;;5027778;28;20186;-71
2023/12/17 09:19:42;;;;;;;14.40;11.23;;;1.20;39.00;;;;;;5028261;28;20605;-71
2023/12/17 09:22:08;;;;;;;14.17;10.93;;;1.30;38.60;;;;;;5027715;28;20185;-71
2023/12/17 09:24:34;;;;;;;15.50;12.10;;;1.30;39.10;;;;;;5028127;28;20189;-71
2023/12/17 09:27:00;;;;;;;14.17;9.90;;;1.40;37.90;;;;;;5028000;28;20581;-71
2023/12/17 09:29:26;;;;;;;11.85;9.90;;;1.50;37.50;;;;;;5027194;28;20487;-70
2023/12/17 09:31:52;;;;;;;12.10;10.70;;;1.60;36.00;;;;;;5024961;28;20715;-70
2023/12/17 09:34:17;;;;;;;13.63;10.00;;;1.70;37.40;;;;;;5007116;28;20205;-71
2023/12/17 09:36:43;;;;;;;11.67;10.40;;;1.80;36.10;;;;;;5027103;28;20191;-69
2023/12/17 09:39:09;;;;;;;11.73;10.50;;;1.80;37.40;;;;;;5031158;28;20204;-71
2023/12/17 09:41:35;;;;;;;16.40;10.40;;;1.90;35.60;;;;;;5031478;28;20418;-70
2023/12/17 09:44:03;;;;;;;13.68;10.32;;;1.90;35.50;;;;;;5031642;28;20428;-70
2023/12/17 09:46:29;;;;;;;12.60;10.63;;;2.00;32.70;;;;;;5028764;28;20490;-70
2023/12/17 09:48:55;;;;;;;14.80;9.80;;;2.20;32.70;;;;;;5026727;28;20186;-70
2023/12/17 09:51:22;;;;;;;12.20;8.80;;;2.20;31.90;;;;;;5027428;28;20264;-70
2023/12/17 09:53:48;;;;;;;12.43;9.60;;;2.30;31.80;;;;;;5027033;28;20693;-76
2023/12/17 09:56:14;;;;;;;14.33;9.30;;;2.40;29.90;;;;;;5026941;28;20246;-71
2023/12/17 09:58:40;;;;;;;11.57;8.97;;;2.50;29.10;;;;;;5027300;28;20190;-71
2023/12/17 10:01:05;;;;;;;11.23;9.23;;;2.50;28.40;;;;;;5033972;23;20489;-68
2023/12/17 10:03:33;;;;;;;12.00;9.20;;;2.60;26.70;;;;;;5027934;28;20673;-67
2023/12/17 10:05:58;;;;;;;11.75;8.00;;;2.70;26.50;;;;;;5028564;28;20268;-67
2023/12/17 10:08:24;;;;;;;9.40;7.80;;;2.70;25.30;;;;;;5027236;28;20410;-67
2023/12/17 10:10:50;;;;;;;9.37;8.37;;;2.80;25.70;;;;;;5028094;28;20217;-68
2023/12/17 10:13:21;;;;;;;9.37;7.63;;;2.80;24.60;;;;;;5028725;28;20684;-68
2023/12/17 10:15:55;;;;;;;9.95;8.82;;;2.90;25.40;;;;;;5010288;28;21004;-68
2023/12/17 10:18:22;;;;;;;13.02;9.38;;;2.90;26.20;;;;;;5027731;28;20187;-68
2023/12/17 10:20:49;;;;;;;10.47;8.90;;;3.00;25.40;;;;;;5029963;28;20198;-68
2023/12/17 10:23:15;;;;;;;9.15;8.25;;;3.20;24.90;;;;;;5032263;28;20829;-68
2023/12/17 10:25:42;;;;;;;10.73;8.27;;;3.30;23.20;;;;;;5033922;28;20186;-68
2023/12/17 10:28:10;;;;;;;8.98;8.07;;;3.40;24.10;;;;;;5035035;28;20196;-68
2023/12/17 10:30:36;;;;;;;9.27;7.38;;;3.40;22.30;;;;;;5035131;28;20587;-68
2023/12/17 10:33:03;;;;;;;9.87;8.83;;;3.40;20.50;;;;;;5035331;28;20547;-68
2023/12/17 10:35:30;;;;;;;11.17;7.97;;;3.40;22.00;;;;;;5034976;28;20472;-68
2023/12/17 10:38:01;;;;;;;8.80;7.10;;;3.50;22.00;;;;;;5016905;28;20430;-67
2023/12/17 10:40:28;;;;;;;8.23;7.37;;;3.50;19.20;;;;;;5034897;28;20441;-68
2023/12/17 10:42:56;;;;;;;8.43;7.30;;;3.70;19.30;;;;;;5017253;28;20424;-68
2023/12/17 10:45:22;;;;;;;7.23;6.40;;;3.70;18.50;;;;;;5034629;28;20842;-67
2023/12/17 10:47:56;;;;;;;9.83;7.63;;;3.80;19.40;;;;;;5016741;28;20425;-68
2023/12/17 10:50:23;;;;;;;9.60;6.60;;;4.00;19.50;;;;;;5034555;28;20462;-68
2023/12/17 10:52:49;;;;;;;8.27;7.23;;;4.20;17.30;;;;;;5016988;28;20411;-68
2023/12/17 10:55:16;;;;;;;10.20;7.63;;;4.30;17.80;;;;;;5034681;28;20429;-69
2023/12/17 10:57:57;;;;;;;9.63;6.90;;;4.30;14.40;;;;;;5034075;28;20454;-68
2023/12/17 11:00:26;;;;;;;7.63;6.80;;;4.40;12.80;;;;;;5034235;28;20446;-67
2023/12/17 11:02:58;;;;;;;6.37;5.33;;;4.50;12.50;;;;;;5015769;28;20934;-68
2023/12/17 11:05:24;;;;;;;26.33;17.67;;;4.60;10.60;;;;;;5010836;28;20430;-68
2023/12/17 11:07:50;;;;;;;8.80;6.23;;;4.70;12.10;;;;;;5021771;28;20811;-68
2023/12/17 11:10:17;;;;;;;32.23;24.40;;;4.90;12.50;;;;;;5015211;28;20207;-68
2023/12/17 11:12:45;;;;;;;10.63;6.53;;;5.00;11.60;;;;;;5033874;28;20266;-68
2023/12/17 11:15:12;;;;;;;7.87;6.47;;;5.00;10.20;;;;;;5033852;28;20918;-68
2023/12/17 11:17:38;;;;;;;8.80;7.00;;;5.20;8.00;;;;;;5033683;28;20842;-68
2023/12/17 11:20:05;;;;;;;8.47;6.30;;;5.30;8.60;;;;;;5015988;28;20933;-68
2023/12/17 11:22:35;;;;;;;10.37;8.00;;;5.40;6.50;;;;;;5033853;28;20426;-68
2023/12/17 11:25:00;;;;;;;10.53;8.13;;;5.50;7.20;;;;;;5033953;28;20410;-68
2023/12/17 11:27:26;;;;;;;8.00;6.30;;;5.60;8.60;;;;;;5033762;28;20433;-68
2023/12/17 11:29:54;;;;;;;8.30;6.23;;;5.70;5.10;;;;;;5033431;28;20549;-68
2023/12/17 11:32:22;;;;;;;9.47;7.07;;;5.80;5.30;;;;;;5032709;28;20536;-68
2023/12/17 11:34:50;;;;;;;10.40;7.30;;;5.80;2.50;;;;;;5033630;28;20775;-68
2023/12/17 11:37:20;;;;;;;7.60;6.20;;;6.00;3.40;;;;;;5033634;28;20425;-68
2023/12/17 11:39:50;;;;;;;8.83;6.07;;;6.00;1.10;;;;;;5033523;28;20469;-68
2023/12/17 11:42:16;;;;;;;7.70;6.87;;;6.10;1.00;;;;;;5015718;28;20840;-68
2023/12/17 11:44:46;;;;;;;8.47;6.10;;;6.30;1.00;;;;;;5033528;28;20414;-68
2023/12/17 11:47:13;;;;;;;7.73;6.07;;;6.40;1.00;;;;;;5033617;28;20466;-69
2023/12/17 11:49:40;;;;;;;10.57;6.20;;;6.50;1.00;;;;;;5031813;28;20463;-68
2023/12/17 11:52:14;;;;;;;9.30;6.03;;;6.70;1.00;;;;;;5014219;28;20451;-68
2023/12/17 11:54:41;;;;;;;8.20;6.80;;;6.90;1.00;;;;;;5033398;28;20921;-69
2023/12/17 11:57:23;;;;;;;9.00;7.23;;;6.90;1.00;;;;;;5033184;28;20457;-69
2023/12/17 11:59:51;;;;;;;10.90;8.37;;;7.10;1.00;;;;;;5033052;28;20446;-69
2023/12/17 12:02:20;;;;;;;12.40;9.17;;;7.00;1.00;;;;;;5033394;28;20412;-69
2023/12/17 12:04:46;;;;;;;8.57;7.50;;;7.10;1.00;;;;;;5033125;28;20793;-68
2023/12/17 12:07:19;;;;;;;8.07;7.30;;;7.10;1.00;;;;;;5033435;28;20425;-69
2023/12/17 12:09:45;;;;;;;8.97;6.90;;;7.10;1.00;;;;;;5034160;28;20468;-69
2023/12/17 12:12:14;;;;;;;9.27;7.30;;;7.30;1.00;;;;;;5035491;28;20425;-68
2023/12/17 12:14:40;;;;;;;9.97;7.97;;;7.50;1.00;;;;;;5033973;28;20415;-69
2023/12/17 12:17:05;;;;;;;8.13;6.73;;;7.50;1.00;;;;;;5034647;28;20405;-69
2023/12/17 12:19:31;;;;;;;8.73;6.67;;;7.50;1.00;;;;;;5035344;28;20289;-69
2023/12/17 12:21:57;;;;;;;8.07;7.23;;;7.50;1.00;;;;;;5017677;28;20186;-69
2023/12/17 12:24:23;;;;;;;7.33;6.30;;;7.70;1.00;;;;;;5017124;28;20203;-69
2023/12/17 12:26:50;;;;;;;11.40;8.03;;;7.70;1.00;;;;;;5037663;28;20250;-69
2023/12/17 12:29:15;;;;;;;8.30;7.50;;;7.80;1.00;;;;;;5037966;28;20513;-69
2023/12/17 12:31:50;;;;;;;10.20;7.10;;;7.80;1.00;;;;;;5036299;28;20432;-68
2023/12/17 12:34:16;;;;;;;10.57;7.30;;;7.90;1.00;;;;;;5035006;28;20170;-69
2023/12/17 12:36:47;;;;;;;7.83;6.77;;;7.90;1.00;;;;;;5034519;28;20436;-68